Time;durP1;ratioP1;P1;durP2;ratioP2;P2;SDS_P1;SDS_P2;PMS_P1;PMS_P2;Temp;Humidity;BMP_temperature;BMP_pressure;BME280_temperature;BME280_humidity;BME280_pressure;Samples;Min_cycle;Max_cycle;Signal;HPM_P1;HPM_P2
2023/05/22 00:01:51;;;;;;;10.33;6.47;;;16.10;99.90;;;16.40;63.05;94718.91;5076766;28;20474;-73
2023/05/22 00:04:20;;;;;;;8.70;5.10;;;16.10;99.90;;;16.39;63.74;94719.91;5072809;28;20579;-73
2023/05/22 00:06:48;;;;;;;14.10;5.30;;;16.10;99.90;;;16.39;63.32;94715.44;5073394;28;20471;-59
2023/05/22 00:09:15;;;;;;;5.97;4.63;;;16.10;99.90;;;16.40;63.06;94717.09;5071474;28;20459;-58
2023/05/22 00:11:42;;;;;;;12.63;5.37;;;16.10;99.90;;;16.43;63.04;94721.22;5072161;28;20486;-71
2023/05/22 00:14:12;;;;;;;8.00;5.00;;;16.10;99.90;;;16.44;63.64;94717.56;5073146;28;20533;-59
2023/05/22 00:16:39;;;;;;;7.13;5.53;;;16.10;99.90;;;16.44;63.09;94726.34;5073882;28;20524;-72
2023/05/22 00:19:11;;;;;;;15.90;4.23;;;16.10;99.90;;;16.43;63.34;94715.91;5072950;28;20499;-60
2023/05/22 00:21:40;;;;;;;9.70;4.87;;;16.10;99.90;;;16.43;63.61;94719.38;5075570;28;20470;-59
2023/05/22 00:24:09;;;;;;;5.33;4.83;;;16.10;99.90;;;16.43;63.16;94727.34;5075103;28;20524;-74
2023/05/22 00:26:36;;;;;;;6.60;4.80;;;16.10;99.90;;;16.44;63.15;94729.00;5078785;28;20649;-59
2023/05/22 00:29:04;;;;;;;14.70;5.83;;;16.10;99.90;;;16.46;63.21;94726.16;5073369;28;20455;-59
2023/05/22 00:31:32;;;;;;;9.00;5.43;;;16.20;99.90;;;16.45;63.29;94730.66;5072638;28;20481;-60
2023/05/22 00:33:59;;;;;;;6.43;5.60;;;16.20;99.90;;;16.45;63.47;94725.34;5072745;28;20508;-58
2023/05/22 00:36:26;;;;;;;5.63;5.10;;;16.10;99.90;;;16.44;63.41;94731.66;5072562;28;20478;-59
2023/05/22 00:38:55;;;;;;;7.43;5.70;;;16.10;99.90;;;16.43;63.31;94732.66;5075174;28;20991;-73
2023/05/22 00:41:22;;;;;;;6.93;5.10;;;16.10;99.90;;;16.43;62.98;94732.66;5080027;28;20850;-59
2023/05/22 00:43:50;;;;;;;12.53;5.50;;;16.10;99.90;;;16.43;63.19;94730.00;5074702;28;20996;-60
2023/05/22 00:46:20;;;;;;;5.33;4.93;;;16.10;99.90;;;16.45;63.03;94730.66;5076829;28;20853;-73
2023/05/22 00:48:48;;;;;;;7.30;5.43;;;16.10;99.90;;;16.44;63.02;94729.00;5075002;28;20973;-60
2023/05/22 00:51:15;;;;;;;6.10;5.40;;;16.10;99.90;;;16.45;63.04;94729.81;5073625;28;20486;-75
2023/05/22 00:53:42;;;;;;;11.80;5.90;;;16.20;99.90;;;16.45;63.40;94728.00;5080041;28;20462;-72
2023/05/22 00:56:11;;;;;;;12.57;6.50;;;16.20;99.90;;;16.43;63.53;94732.66;5072694;28;20475;-60
2023/05/22 00:58:39;;;;;;;10.03;6.00;;;16.20;99.90;;;16.41;63.36;94729.34;5077047;28;20465;-60
2023/05/22 01:01:08;;;;;;;7.40;5.60;;;16.10;99.90;;;16.39;63.12;94723.41;5077102;28;20470;-73
2023/05/22 01:03:36;;;;;;;5.87;5.33;;;16.10;99.90;;;16.38;63.34;94718.28;5074161;28;20580;-73
2023/05/22 01:06:03;;;;;;;7.90;5.80;;;16.10;99.90;;;16.37;63.43;94722.75;5076928;28;20542;-71
2023/05/22 01:08:31;;;;;;;7.33;5.73;;;16.00;99.90;;;16.37;63.45;94716.63;5072860;28;20459;-73
2023/05/22 01:11:02;;;;;;;11.80;6.67;;;16.10;99.90;;;16.37;63.46;94717.44;5076331;28;20537;-59
2023/05/22 01:13:36;;;;;;;8.20;5.63;;;16.10;99.90;;;16.37;63.44;94717.44;5077343;28;20499;-59
2023/05/22 01:16:11;;;;;;;13.37;6.50;;;16.10;99.90;;;16.36;63.59;94720.28;5071326;28;20475;-72
2023/05/22 01:18:42;;;;;;;5.37;4.90;;;16.10;99.90;;;16.36;63.57;94722.94;5072995;28;20448;-74
2023/05/22 01:21:13;;;;;;;11.33;5.43;;;16.10;99.90;;;16.35;63.41;94722.13;5075649;28;20535;-60
2023/05/22 01:24:19;;;;;;;10.83;5.67;;;16.00;99.90;;;16.33;63.62;94718.81;5072369;28;20470;-75
2023/05/22 01:27:28;;;;;;;7.70;5.43;;;16.00;99.90;;;16.27;63.72;94706.28;5078672;28;20477;-75
2023/05/22 01:30:17;;;;;;;9.27;6.17;;;16.00;99.90;;;16.23;63.83;94719.03;5073539;28;20442;-58
2023/05/22 01:32:46;;;;;;;8.70;5.27;;;16.00;99.90;;;16.19;63.61;94716.94;5075311;28;21029;-59
2023/05/22 01:35:15;;;;;;;9.90;6.03;;;15.90;99.90;;;16.17;63.75;94717.09;5074333;28;20532;-73
2023/05/22 01:37:42;;;;;;;9.10;5.43;;;15.90;99.90;;;16.13;63.71;94716.66;5075024;28;20471;-73
2023/05/22 01:40:11;;;;;;;8.07;5.90;;;15.90;99.90;;;16.09;63.70;94723.31;5070354;28;20447;-58
2023/05/22 01:42:40;;;;;;;8.77;5.70;;;15.80;99.90;;;16.04;63.91;94712.41;5072842;28;20482;-74
2023/05/22 01:45:09;;;;;;;7.87;6.50;;;15.80;99.90;;;16.01;64.04;94710.09;5076254;28;20494;-74
2023/05/22 01:47:36;;;;;;;7.33;5.63;;;15.70;99.90;;;15.98;63.93;94712.28;5073161;28;20488;-59
2023/05/22 01:50:06;;;;;;;6.00;4.97;;;15.70;99.90;;;15.93;64.12;94712.81;5073153;28;21111;-73
2023/05/22 01:52:41;;;;;;;7.87;5.67;;;15.70;99.90;;;15.90;64.46;94718.47;5074218;28;20551;-58
2023/05/22 01:55:13;;;;;;;6.77;6.07;;;15.70;99.90;;;15.87;64.34;94713.53;5072428;28;21028;-59
2023/05/22 01:57:46;;;;;;;6.03;5.50;;;15.60;99.90;;;15.86;64.55;94714.53;5072852;28;20471;-59
2023/05/22 02:00:15;;;;;;;5.87;5.27;;;15.60;99.90;;;15.84;64.78;94706.75;5075300;28;20942;-73
2023/05/22 02:02:43;;;;;;;9.13;6.47;;;15.60;99.90;;;15.83;64.66;94710.38;5070652;28;20477;-75
2023/05/22 02:05:12;;;;;;;9.40;5.80;;;15.60;99.90;;;15.81;64.82;94711.59;5074120;28;20490;-75
2023/05/22 02:07:40;;;;;;;8.50;6.90;;;15.60;99.90;;;15.80;64.77;94704.63;5073674;28;20486;-73
2023/05/22 02:10:09;;;;;;;8.43;6.50;;;15.50;99.90;;;15.76;64.79;94706.78;5073982;28;21089;-74
2023/05/22 02:12:37;;;;;;;13.03;6.47;;;15.50;99.90;;;15.74;65.13;94706.13;5070746;28;20466;-59
2023/05/22 02:15:05;;;;;;;13.60;6.13;;;15.50;99.90;;;15.72;65.46;94714.28;5075024;28;20454;-60
2023/05/22 02:17:39;;;;;;;8.43;6.07;;;15.50;99.90;;;15.69;65.15;94711.97;5076601;28;20467;-73
2023/05/22 02:20:13;;;;;;;9.70;6.57;;;15.40;99.90;;;15.68;65.16;94712.13;5076214;28;20442;-61
2023/05/22 02:22:43;;;;;;;6.60;5.97;;;15.40;99.90;;;15.67;65.17;94715.78;5070382;28;21010;-58
2023/05/22 02:25:13;;;;;;;6.20;5.30;;;15.40;99.90;;;15.62;65.31;94703.06;5074855;28;21023;-71
2023/05/22 02:27:41;;;;;;;18.07;6.20;;;15.40;99.90;;;15.60;65.09;94713.00;5072820;28;21025;-75
2023/05/22 02:30:10;;;;;;;10.43;6.77;;;15.30;99.90;;;15.57;65.34;94714.19;5072636;28;20489;-73
2023/05/22 02:32:39;;;;;;;7.17;6.47;;;15.30;99.90;;;15.54;65.43;94717.19;5077766;28;20908;-75
2023/05/22 02:35:07;;;;;;;11.70;6.50;;;15.30;99.90;;;15.51;65.62;94722.81;5076287;28;20876;-61
2023/05/22 02:37:36;;;;;;;10.33;7.00;;;15.20;99.90;;;15.50;65.49;94715.03;5077721;28;20465;-75
2023/05/22 02:40:05;;;;;;;9.60;6.80;;;15.30;99.90;;;15.49;65.71;94713.38;5076887;28;20454;-59
2023/05/22 02:42:32;;;;;;;11.93;6.93;;;15.20;99.90;;;15.48;65.65;94711.75;5080728;28;20481;-59
2023/05/22 02:45:00;;;;;;;12.03;7.27;;;15.20;99.90;;;15.48;65.58;94719.72;5077372;28;20501;-59
2023/05/22 02:47:27;;;;;;;10.47;6.33;;;15.20;99.90;;;15.46;65.94;94713.72;5074049;28;20482;-59
2023/05/22 02:49:56;;;;;;;9.47;6.60;;;15.20;99.90;;;15.45;65.81;94728.00;5077169;28;20516;-75
2023/05/22 02:52:24;;;;;;;8.20;6.53;;;15.20;99.90;;;15.42;65.89;94716.72;5078864;28;20474;-58
2023/05/22 02:54:53;;;;;;;7.17;6.10;;;15.20;99.90;;;15.41;66.04;94706.31;5075504;28;20524;-76
2023/05/22 02:57:20;;;;;;;17.17;6.87;;;15.20;99.90;;;15.38;66.25;94712.78;5078386;28;20463;-74
2023/05/22 02:59:48;;;;;;;8.47;6.20;;;15.10;99.90;;;15.36;66.49;94708.66;5074857;28;20523;-58
2023/05/22 03:02:16;;;;;;;9.13;6.63;;;15.10;99.90;;;15.32;66.41;94710.00;5074230;28;20474;-60
2023/05/22 03:04:44;;;;;;;11.47;6.97;;;15.10;99.90;;;15.30;66.50;94714.66;5074690;28;20496;-69
2023/05/22 03:07:11;;;;;;;10.93;7.00;;;15.00;99.90;;;15.27;66.35;94715.81;5077918;28;20466;-59
2023/05/22 03:09:39;;;;;;;11.10;8.33;;;15.00;99.90;;;15.23;66.68;94711.88;5074553;28;20536;-59
2023/05/22 03:12:09;;;;;;;12.40;8.13;;;15.00;99.90;;;15.19;66.77;94708.72;5076423;28;20477;-59
2023/05/22 03:14:37;;;;;;;10.20;7.20;;;15.00;99.90;;;15.18;66.94;94715.03;5073101;28;20533;-74
2023/05/22 03:17:04;;;;;;;9.93;7.17;;;14.90;99.90;;;15.16;67.02;94711.72;5077454;28;20509;-71
2023/05/22 03:19:31;;;;;;;10.23;6.77;;;14.90;99.90;;;15.15;67.14;94722.47;5078607;28;20451;-59
2023/05/22 03:21:58;;;;;;;12.97;8.37;;;14.90;99.90;;;15.13;66.93;94713.88;5075123;28;20483;-60
2023/05/22 03:24:26;;;;;;;25.83;7.93;;;14.90;99.90;;;15.11;66.92;94713.25;5079488;28;20490;-77
2023/05/22 03:26:53;;;;;;;16.27;7.80;;;14.90;99.90;;;15.08;66.88;94708.28;5077754;28;20553;-58
2023/05/22 03:29:22;;;;;;;15.17;7.93;;;14.80;99.90;;;15.05;67.13;94710.25;5072863;28;20465;-58
2023/05/22 03:31:50;;;;;;;14.07;8.07;;;14.80;99.90;;;15.03;67.48;94712.28;5076975;28;20451;-58
2023/05/22 03:34:17;;;;;;;12.63;8.57;;;14.80;99.90;;;15.02;67.08;94707.97;5077133;28;20497;-58
2023/05/22 03:36:45;;;;;;;13.97;7.83;;;14.80;99.90;;;15.02;67.43;94707.16;5078065;28;20900;-76
2023/05/22 03:39:12;;;;;;;16.47;8.50;;;14.70;99.90;;;15.04;67.73;94715.72;5078737;28;20481;-59
2023/05/22 03:41:39;;;;;;;15.27;8.10;;;14.70;99.90;;;15.02;67.81;94713.25;5077362;28;21018;-69
2023/05/22 03:44:07;;;;;;;20.97;10.43;;;14.80;99.90;;;15.04;67.94;94713.94;5075919;28;20510;-60
2023/05/22 03:46:38;;;;;;;16.97;8.30;;;14.80;99.90;;;15.05;67.72;94712.91;5076475;28;20471;-76
2023/05/22 03:49:05;;;;;;;11.30;8.10;;;14.80;99.90;;;15.09;67.68;94712.56;5080160;28;20446;-74
2023/05/22 03:51:32;;;;;;;11.90;7.40;;;14.80;99.90;;;15.12;67.78;94712.22;5080507;28;21034;-60
2023/05/22 03:54:00;;;;;;;13.40;7.77;;;14.80;99.90;;;15.14;67.71;94718.19;5079851;28;20528;-60
2023/05/22 03:56:27;;;;;;;11.57;8.43;;;14.90;99.90;;;15.16;67.72;94718.84;5075057;28;20532;-77
2023/05/22 03:58:55;;;;;;;11.13;8.77;;;14.90;99.90;;;15.18;67.57;94722.13;5077144;28;20455;-60
2023/05/22 04:01:23;;;;;;;14.17;8.53;;;14.90;99.90;;;15.20;68.02;94725.47;5075630;28;20475;-74
2023/05/22 04:03:52;;;;;;;27.63;12.17;;;15.00;99.90;;;15.22;67.83;94731.41;5075959;28;20497;-58
2023/05/22 04:06:20;;;;;;;23.23;9.80;;;15.00;99.90;;;15.24;67.77;94726.75;5071869;28;20890;-72
2023/05/22 04:08:48;;;;;;;24.70;10.00;;;15.00;99.90;;;15.28;67.70;94721.97;5078104;28;20450;-74
2023/05/22 04:11:15;;;;;;;19.20;9.73;;;15.00;99.90;;;15.30;67.72;94718.13;5073041;28;20843;-59
2023/05/22 04:13:42;;;;;;;21.40;9.40;;;15.00;99.90;;;15.33;67.90;94725.72;5075485;28;20893;-60
2023/05/22 04:16:10;;;;;;;21.70;8.47;;;15.10;99.90;;;15.37;68.18;94726.22;5077122;28;20467;-76
2023/05/22 04:18:37;;;;;;;15.30;9.13;;;15.10;99.90;;;15.40;67.87;94732.00;5084666;28;20472;-61
2023/05/22 04:21:08;;;;;;;11.20;7.53;;;15.10;99.90;;;15.42;68.05;94724.69;5077783;28;20470;-59
2023/05/22 04:23:37;;;;;;;24.73;9.73;;;15.10;99.90;;;15.43;68.09;94722.88;5078908;28;20481;-75
2023/05/22 04:26:04;;;;;;;18.67;8.80;;;15.20;99.90;;;15.47;68.04;94720.69;5074063;28;20497;-75
2023/05/22 04:28:33;;;;;;;16.43;8.50;;;15.20;99.90;;;15.49;68.18;94724.84;5078977;28;20453;-75
2023/05/22 04:31:01;;;;;;;22.57;9.80;;;15.20;99.90;;;15.52;68.15;94724.50;5081620;28;20881;-59
2023/05/22 04:33:29;;;;;;;21.23;11.50;;;15.30;99.90;;;15.54;68.50;94727.78;5068763;28;20471;-61
2023/05/22 04:35:56;;;;;;;15.83;9.30;;;15.30;99.90;;;15.58;68.20;94734.41;5079098;28;20569;-59
2023/05/22 04:38:25;;;;;;;17.03;9.20;;;15.30;99.90;;;15.63;67.87;94731.22;5074405;28;20454;-61
2023/05/22 04:40:53;;;;;;;20.17;9.60;;;15.40;99.90;;;15.67;67.73;94732.50;5077200;28;20814;-72
2023/05/22 04:43:22;;;;;;;23.87;9.20;;;15.40;99.90;;;15.73;67.84;94725.69;5073619;28;20451;-61
2023/05/22 04:45:50;;;;;;;14.97;9.03;;;15.50;99.90;;;15.80;67.78;94737.28;5072532;28;20489;-73
2023/05/22 04:48:18;;;;;;;21.30;10.33;;;15.50;99.90;;;15.87;68.04;94743.53;5069716;28;20466;-72
2023/05/22 04:50:46;;;;;;;16.00;8.60;;;15.60;99.90;;;15.96;67.71;94733.69;5076053;28;20501;-72
2023/05/22 04:53:13;;;;;;;16.50;9.17;;;15.70;99.90;;;16.07;67.38;94730.63;5071600;28;21027;-72
2023/05/22 04:55:45;;;;;;;13.03;7.20;;;15.80;99.90;;;16.19;67.26;94735.50;5074579;28;20570;-61
2023/05/22 04:58:13;;;;;;;15.73;8.30;;;15.90;99.90;;;16.33;66.99;94739.22;5072425;28;20447;-60
2023/05/22 05:00:44;;;;;;;9.23;6.93;;;16.00;99.90;;;16.45;66.70;94732.47;5077161;28;20446;-59
2023/05/22 05:03:11;;;;;;;26.57;7.10;;;16.10;99.90;;;16.59;65.70;94738.81;5067956;28;20434;-73
2023/05/22 05:05:39;;;;;;;15.53;6.80;;;16.20;99.90;;;16.68;65.37;94737.75;5076956;28;20578;-60
2023/05/22 05:08:06;;;;;;;14.00;7.20;;;16.40;99.90;;;16.78;65.17;94729.53;5074907;28;20477;-72
2023/05/22 05:10:33;;;;;;;8.60;6.80;;;16.50;99.90;;;16.87;64.93;94733.78;5072189;28;20454;-73
2023/05/22 05:13:02;;;;;;;7.47;6.67;;;16.60;99.90;;;16.97;64.66;94739.63;5076983;28;21410;-61
2023/05/22 05:15:30;;;;;;;10.50;6.30;;;16.70;99.90;;;17.09;64.22;94734.69;5073921;28;20462;-72
2023/05/22 05:17:57;;;;;;;7.73;6.00;;;16.80;99.90;;;17.24;64.19;94747.16;5073162;28;20470;-60
2023/05/22 05:20:26;;;;;;;10.63;6.40;;;16.90;99.90;;;17.39;63.32;94748.78;5074192;28;20462;-72
2023/05/22 05:22:53;;;;;;;7.20;5.47;;;17.00;99.90;;;17.56;63.03;94746.75;5070454;28;21371;-60
2023/05/22 05:25:20;;;;;;;13.23;6.57;;;17.20;99.90;;;17.73;62.59;94744.69;5068654;28;21195;-60
2023/05/22 05:27:48;;;;;;;8.43;5.83;;;17.30;99.90;;;17.90;62.38;94745.31;5073530;28;20479;-72
2023/05/22 05:30:17;;;;;;;18.90;6.80;;;17.50;99.90;;;18.11;62.12;94746.38;5075916;28;20528;-73
2023/05/22 05:32:45;;;;;;;8.70;6.27;;;17.70;99.90;;;18.32;61.53;94747.38;5068361;28;20479;-74
2023/05/22 05:35:12;;;;;;;13.60;7.00;;;17.80;99.90;;;18.49;61.16;94743.44;5076588;28;20531;-72
2023/05/22 05:37:40;;;;;;;15.63;7.10;;;18.00;99.90;;;18.67;60.21;94745.63;5074908;28;20471;-71
2023/05/22 05:40:09;;;;;;;10.20;5.97;;;18.20;99.90;;;18.87;59.92;94747.66;5075290;28;20546;-74
2023/05/22 05:42:36;;;;;;;7.27;6.13;;;18.40;99.90;;;19.05;59.17;94752.50;5078416;28;20481;-73
2023/05/22 05:45:04;;;;;;;7.37;6.33;;;18.60;99.80;;;19.17;58.84;94746.41;5076681;28;20478;-61
2023/05/22 05:47:33;;;;;;;11.23;6.90;;;18.70;99.20;;;19.34;58.47;94749.59;5071047;28;20483;-60
2023/05/22 05:50:00;;;;;;;7.27;6.50;;;18.90;98.90;;;19.54;58.38;94751.53;5069916;28;20451;-59
2023/05/22 05:52:31;;;;;;;8.30;6.03;;;19.10;98.90;;;19.74;58.11;94750.81;5071012;28;20593;-73
2023/05/22 05:54:59;;;;;;;11.50;6.33;;;19.20;98.70;;;19.91;57.06;94757.47;5074528;28;20455;-71
2023/05/22 05:57:27;;;;;;;11.93;6.13;;;19.50;98.20;;;20.09;56.95;94756.06;5077827;28;20505;-72
2023/05/22 05:59:54;;;;;;;12.47;6.63;;;19.60;97.90;;;20.27;56.73;94750.97;5069908;28;20483;-72
2023/05/22 06:02:22;;;;;;;17.47;6.93;;;19.80;97.60;;;20.42;56.23;94753.47;5074566;28;21093;-73
2023/05/22 06:04:52;;;;;;;8.93;5.53;;;19.90;97.20;;;20.56;56.39;94749.78;5067725;28;21039;-61
2023/05/22 06:07:19;;;;;;;14.67;6.63;;;20.10;97.30;;;20.70;56.25;94742.63;5067082;28;20577;-61
2023/05/22 06:09:47;;;;;;;9.53;5.63;;;20.20;97.00;;;20.84;55.36;94750.63;5070026;28;20458;-60
2023/05/22 06:12:14;;;;;;;8.43;5.43;;;20.30;96.60;;;20.99;55.06;94745.06;5068206;28;20918;-74
2023/05/22 06:14:41;;;;;;;8.50;5.50;;;20.50;96.10;;;21.13;54.46;94752.84;5070119;28;20481;-61
2023/05/22 06:17:09;;;;;;;13.53;6.87;;;20.60;95.60;;;21.32;54.23;94745.00;5078165;28;20539;-73
2023/05/22 06:19:36;;;;;;;8.83;6.60;;;20.80;95.30;;;21.52;53.91;94747.66;5075693;28;20457;-62
2023/05/22 06:22:05;;;;;;;6.77;5.30;;;21.00;95.00;;;21.71;52.94;94753.16;5072045;28;20902;-73
2023/05/22 06:24:33;;;;;;;6.10;5.43;;;21.20;94.40;;;21.85;52.45;94750.19;5073104;28;20947;-60
2023/05/22 06:27:01;;;;;;;16.20;5.97;;;21.30;94.10;;;21.92;52.41;94752.00;5067752;28;20503;-60
2023/05/22 06:29:28;;;;;;;8.27;5.73;;;21.40;93.70;;;21.88;52.06;94751.63;5073057;28;20504;-74
2023/05/22 06:31:55;;;;;;;11.67;5.70;;;21.40;93.00;;;21.84;51.98;94751.25;5068367;28;20470;-59
2023/05/22 06:34:24;;;;;;;8.23;5.73;;;21.40;92.90;;;21.79;51.68;94745.69;5071871;28;20446;-59
2023/05/22 06:36:51;;;;;;;8.83;5.87;;;21.40;92.80;;;21.77;52.23;94755.78;5073130;28;20470;-60
2023/05/22 06:39:21;;;;;;;10.97;5.97;;;21.30;92.90;;;21.78;52.20;94752.09;5075202;28;20462;-74
2023/05/22 06:41:48;;;;;;;9.10;4.67;;;21.30;92.80;;;21.85;52.11;94752.88;5078361;28;20462;-76
2023/05/22 06:44:16;;;;;;;11.20;5.30;;;21.40;92.50;;;21.98;51.78;94754.69;5074250;28;20903;-75
2023/05/22 06:46:43;;;;;;;12.90;5.70;;;21.50;92.20;;;22.16;51.36;94745.09;5075422;28;20543;-73
2023/05/22 06:49:10;;;;;;;5.97;4.87;;;21.60;91.80;;;22.38;50.84;94745.59;5070558;28;21027;-75
2023/05/22 06:51:38;;;;;;;7.70;5.77;;;21.90;91.70;;;22.54;50.82;94750.44;5072181;28;20489;-74
2023/05/22 06:54:06;;;;;;;8.40;5.80;;;22.00;91.10;;;22.65;49.94;94748.94;5072524;28;20467;-59
2023/05/22 06:56:35;;;;;;;7.90;4.97;;;22.10;90.70;;;22.70;48.93;94750.97;5071455;28;20470;-61
2023/05/22 06:59:02;;;;;;;6.83;5.00;;;22.20;88.50;;;22.68;48.86;94750.34;5079454;28;20478;-61
2023/05/22 07:01:30;;;;;;;5.40;4.90;;;22.20;88.60;;;22.70;49.14;94748.28;5069841;28;20806;-60
2023/05/22 07:03:59;;;;;;;7.33;4.97;;;22.20;87.40;;;22.67;48.57;94746.03;5072455;28;20454;-60
2023/05/22 07:06:26;;;;;;;8.10;5.10;;;22.20;87.30;;;22.65;48.94;94742.72;5073240;28;20497;-60
2023/05/22 07:08:53;;;;;;;5.93;5.20;;;22.20;87.90;;;22.63;48.83;94758.22;5070865;28;20838;-74
2023/05/22 07:11:21;;;;;;;7.60;6.00;;;22.20;87.80;;;22.63;49.40;94753.66;5074582;28;20474;-75
2023/05/22 07:13:49;;;;;;;8.63;4.67;;;22.20;87.40;;;22.62;48.56;94756.56;5073495;28;20451;-72
2023/05/22 07:16:17;;;;;;;12.90;5.03;;;22.20;86.60;;;22.65;48.84;94751.59;5075970;28;20462;-73
2023/05/22 07:18:45;;;;;;;9.30;5.00;;;22.20;86.10;;;22.68;47.74;94753.00;5076398;28;20819;-72
2023/05/22 07:21:12;;;;;;;10.83;4.63;;;22.20;84.30;;;22.74;48.42;94752.13;5071268;28;20891;-73
2023/05/22 07:23:39;;;;;;;7.03;4.07;;;22.30;84.80;;;22.85;48.10;94746.09;5078726;28;20446;-60
2023/05/22 07:26:08;;;;;;;5.67;3.73;;;22.40;84.50;;;23.01;47.36;94755.44;5084619;28;20486;-72
2023/05/22 07:28:35;;;;;;;7.27;4.67;;;22.50;83.70;;;23.19;47.68;94743.13;5077901;28;21062;-72
2023/05/22 07:31:04;;;;;;;7.60;4.67;;;22.70;83.80;;;23.42;46.46;94739.78;5077488;28;20450;-72
2023/05/22 07:33:31;;;;;;;8.70;3.80;;;22.90;82.20;;;23.72;46.60;94749.75;5076893;28;20456;-62
2023/05/22 07:35:59;;;;;;;19.97;4.70;;;23.10;81.60;;;23.98;45.82;94741.44;5077546;28;20456;-60
2023/05/22 07:38:26;;;;;;;14.10;5.33;;;23.40;80.80;;;24.26;44.72;94739.19;5075106;28;20461;-72
2023/05/22 07:40:53;;;;;;;4.60;3.40;;;23.70;78.70;;;24.48;44.40;94736.81;5077023;28;20540;-60
2023/05/22 07:43:21;;;;;;;8.97;3.73;;;23.90;77.50;;;24.61;44.25;94746.56;5078030;28;20479;-72
2023/05/22 07:45:48;;;;;;;5.27;4.27;;;24.10;77.10;;;24.65;43.71;94737.81;5075274;28;21007;-73
2023/05/22 07:48:17;;;;;;;8.73;4.13;;;24.10;76.00;;;24.81;43.91;94741.69;5076843;28;20670;-61
2023/05/22 07:50:45;;;;;;;8.03;3.73;;;24.20;75.20;;;25.05;40.54;94734.47;5073570;28;20469;-73
2023/05/22 07:53:12;;;;;;;11.40;4.50;;;24.40;69.80;;;25.24;42.76;94739.75;5074701;28;20466;-60
2023/05/22 07:55:39;;;;;;;9.10;4.23;;;24.70;73.30;;;25.33;42.87;94727.59;5077086;28;20449;-61
2023/05/22 07:58:07;;;;;;;4.63;3.93;;;24.80;71.90;;;25.49;42.31;94730.63;5074264;28;21024;-74
2023/05/22 08:00:34;;;;;;;10.37;4.00;;;24.90;71.80;;;25.63;42.17;94726.59;5076154;28;20451;-60
2023/05/22 08:03:01;;;;;;;16.70;4.03;;;25.10;71.10;;;25.77;42.05;94727.97;5069952;28;21002;-61
2023/05/22 08:05:30;;;;;;;7.40;4.00;;;25.20;71.10;;;25.89;41.84;94721.75;5076523;28;20450;-61
2023/05/22 08:07:58;;;;;;;6.07;3.77;;;25.30;70.10;;;26.00;40.50;94734.38;5072399;28;21056;-58
2023/05/22 08:10:25;;;;;;;8.27;4.10;;;25.40;67.30;;;26.05;41.24;94734.47;5077343;28;20456;-72
2023/05/22 08:12:52;;;;;;;9.53;3.70;;;25.50;66.80;;;26.07;41.33;94737.75;5072489;28;21311;-60
2023/05/22 08:15:20;;;;;;;6.30;4.30;;;25.60;67.90;;;26.16;41.33;94729.28;5077679;28;20450;-73
2023/05/22 08:17:47;;;;;;;8.30;4.30;;;25.60;67.90;;;26.34;40.98;94734.47;5073900;28;20531;-72
2023/05/22 08:20:15;;;;;;;7.20;4.07;;;25.80;66.90;;;26.56;41.43;94723.00;5077258;28;20445;-61
2023/05/22 08:22:43;;;;;;;3.50;3.20;;;26.00;67.70;;;26.82;40.52;94726.97;5077892;28;20912;-74
2023/05/22 08:25:11;;;;;;;10.20;4.60;;;26.20;66.20;;;27.03;40.48;94725.38;5077829;28;20923;-73
2023/05/22 08:27:38;;;;;;;6.53;3.97;;;26.40;66.20;;;27.22;40.30;94720.56;5074914;28;21032;-75
2023/05/22 08:30:07;;;;;;;16.97;4.90;;;26.60;65.90;;;27.40;39.50;94718.66;5078343;28;20457;-73
2023/05/22 08:32:35;;;;;;;7.23;3.70;;;26.80;64.50;;;27.53;39.59;94721.03;5070629;28;20525;-60
2023/05/22 08:35:02;;;;;;;10.33;3.90;;;27.00;62.90;;;27.55;39.38;94732.38;5078585;28;20453;-73
2023/05/22 08:37:30;;;;;;;10.63;4.47;;;27.00;62.60;;;27.36;37.47;94738.06;5075879;28;20484;-61
2023/05/22 08:39:58;;;;;;;8.97;4.17;;;26.90;58.90;;;27.17;38.06;94732.09;5076320;28;20457;-60
2023/05/22 08:42:26;;;;;;;8.60;3.63;;;26.80;59.80;;;27.15;38.05;94730.69;5075083;28;21377;-62
2023/05/22 08:44:54;;;;;;;13.00;3.73;;;26.70;60.10;;;27.21;38.25;94726.22;5074239;28;20885;-72
2023/05/22 08:47:22;;;;;;;5.77;3.83;;;26.70;59.70;;;27.34;37.59;94723.16;5077292;28;20525;-61
2023/05/22 08:49:50;;;;;;;10.37;4.47;;;26.80;58.80;;;27.52;37.07;94714.78;5074640;28;20512;-61
2023/05/22 08:52:22;;;;;;;16.13;3.10;;;26.90;57.90;;;27.71;35.89;94728.78;5075698;28;20536;-61
2023/05/22 08:54:52;;;;;;;4.03;3.10;;;27.00;57.60;;;27.91;35.87;94728.22;5079192;28;20438;-73
2023/05/22 08:57:21;;;;;;;5.87;3.67;;;27.30;57.20;;;27.90;35.39;94729.31;5082925;28;20477;-73
2023/05/22 08:59:49;;;;;;;3.67;3.33;;;27.30;54.90;;;27.91;34.47;94719.31;5069432;28;20450;-61
2023/05/22 09:02:17;;;;;;;5.10;3.67;;;27.30;53.40;;;27.90;34.02;94709.56;5074424;28;20844;-59
2023/05/22 09:04:45;;;;;;;6.70;3.93;;;27.30;52.20;;;27.91;34.24;94714.72;5072631;28;20450;-60
2023/05/22 09:07:13;;;;;;;5.30;3.23;;;27.30;53.80;;;27.78;34.33;94719.69;5077169;28;20572;-60
2023/05/22 09:09:40;;;;;;;6.20;3.00;;;27.30;52.50;;;27.61;35.10;94722.47;5072786;28;20499;-63
2023/05/22 09:12:09;;;;;;;8.23;3.30;;;27.10;53.70;;;27.45;34.40;94711.47;5077078;28;20512;-60
2023/05/22 09:14:41;;;;;;;8.00;3.73;;;26.90;52.60;;;27.25;34.36;94720.06;5073832;28;20857;-60
2023/05/22 09:17:10;;;;;;;6.77;2.70;;;26.80;52.60;;;27.01;34.95;94714.03;5073374;28;20985;-61
2023/05/22 09:19:37;;;;;;;10.33;3.87;;;26.60;53.30;;;26.82;35.26;94716.97;5073200;28;21041;-72
2023/05/22 09:22:05;;;;;;;4.67;3.40;;;26.40;54.10;;;26.57;35.54;94711.13;5073881;28;20862;-71
2023/05/22 09:24:37;;;;;;;6.37;3.30;;;26.10;53.90;;;26.34;36.12;94704.81;5074319;28;20486;-73
2023/05/22 09:27:06;;;;;;;5.63;3.87;;;25.90;54.70;;;26.07;36.17;94708.13;5073984;28;20577;-72
2023/05/22 09:29:39;;;;;;;6.23;3.57;;;25.70;54.60;;;25.88;36.25;94706.63;5076044;28;20449;-59
2023/05/22 09:32:13;;;;;;;9.00;4.40;;;25.40;54.80;;;25.65;35.68;94715.59;5072722;28;20715;-60
2023/05/22 09:34:41;;;;;;;10.70;4.03;;;25.20;54.20;;;25.43;36.79;94716.22;5069411;28;20443;-60
2023/05/22 09:37:09;;;;;;;9.23;3.50;;;25.00;55.40;;;25.29;37.04;94715.66;5074964;28;20474;-59
2023/05/22 09:39:40;;;;;;;8.90;3.70;;;24.80;55.90;;;25.17;37.11;94714.81;5073816;28;20810;-61
2023/05/22 09:42:10;;;;;;;11.70;3.50;;;24.70;56.40;;;25.10;37.47;94717.63;5072435;28;20531;-73
2023/05/22 09:44:37;;;;;;;9.07;4.57;;;24.60;56.10;;;25.00;37.19;94717.38;5076111;28;20941;-73
2023/05/22 09:47:08;;;;;;;8.73;3.53;;;24.50;56.20;;;24.97;37.85;94712.47;5074140;28;20490;-74
2023/05/22 09:49:37;;;;;;;12.60;4.70;;;24.50;57.30;;;24.94;37.60;94711.06;5076867;28;20450;-61
2023/05/22 09:52:05;;;;;;;7.17;3.23;;;24.50;57.00;;;25.08;38.28;94710.81;5073702;28;21022;-72
2023/05/22 09:54:32;;;;;;;9.80;3.20;;;24.60;57.60;;;25.21;38.05;94718.66;5075956;28;20456;-60
2023/05/22 09:57:00;;;;;;;19.83;4.30;;;24.70;57.50;;;25.26;37.82;94709.88;5073004;28;20497;-73
2023/05/22 09:59:30;;;;;;;6.70;3.70;;;24.70;57.30;;;25.33;38.62;94711.44;5077414;28;20456;-73
2023/05/22 10:01:57;;;;;;;8.60;3.97;;;24.80;57.70;;;25.34;37.48;94713.06;5070355;28;20548;-72
2023/05/22 10:04:26;;;;;;;6.90;3.63;;;24.80;56.40;;;25.24;38.31;94710.94;5072319;28;20827;-61
2023/05/22 10:06:54;;;;;;;6.40;3.70;;;24.80;57.10;;;25.15;38.22;94708.84;5074691;28;21132;-61
2023/05/22 10:09:24;;;;;;;5.40;3.80;;;24.70;57.30;;;25.06;38.90;94714.56;5072082;28;20468;-60
2023/05/22 10:11:53;;;;;;;9.27;3.57;;;24.60;58.10;;;25.03;39.10;94719.59;5073907;28;20556;-72
2023/05/22 10:14:20;;;;;;;8.03;4.10;;;24.50;58.20;;;24.89;38.45;94705.56;5073719;28;20500;-72
2023/05/22 10:16:48;;;;;;;4.57;3.70;;;24.50;57.20;;;24.72;38.21;94721.56;5071251;28;21008;-60
2023/05/22 10:19:15;;;;;;;14.23;3.60;;;24.30;56.80;;;24.54;38.97;94719.75;5071973;28;20446;-60
2023/05/22 10:21:44;;;;;;;6.90;2.83;;;24.10;57.70;;;24.45;39.34;94711.19;5074107;28;20556;-74